Catalina, AZ (85739)

10:23 AM MST on February 14, 2016 (GMT -0700)
Sameniego Heights | | Change Station
CLOSE
Current Station
Personal Weather Station
Location: Tucson, AZ
Elevation: 3156 ft
Nearby Weather Stations

Elev 3156 ft 32.50 °N, 110.90 °W | Updated 0 second ago

Clear
Clear
70.5 °F
Feels Like 72 °F
N
1.3
Wind Variable Wind from SSE
Gusts 2.5 mph

Today
High -- | Low -- °F
--% Chance of Precip.
Yesterday
High -- | Low -- °F
Precip. -- in
Pressure 29.98 in
Visibility 10.0 miles
Clouds Clear
Heat Index 72 °F
Dew Point 15 °F
Humidity 12%
Rainfall 0.00 in
Snow Depth Not available.
7:07 AM 6:08 PM
Waxing Crescent, 43% visible
METAR KDMA 141658Z AUTO 14003KT 10SM CLR 18/M04 A3005 RMK AO2 SLP152 T01781041 $
Pressure 29.98 in
Visibility 10.0 miles
Clouds Clear
Heat Index 72 °F
Dew Point 15 °F
Humidity 12%
Rainfall 0.00 in
Snow Depth Not available.
7:07 AM 6:08 PM
Waxing Crescent, 43% visible
METAR KDMA 141658Z AUTO 14003KT 10SM CLR 18/M04 A3005 RMK AO2 SLP152 T01781041 $

10-Day Weather Forecast

Almanac

Astronomy

Feb. 14, 2016 Rise Set
Actual Time
Civil Twilight
Nautical Twilight
Astronomical Twilight
Moon
Length of Visible Light
Length of Day
Tomorrow will be .
, % of the Moon is Illuminated

Today's Extremes

State Highs State Lows

Community

WunderPhotos

Upload Photos

1,892,856 photos uploaded!

WunderBlog® & News

Nearby

Air Quality

  Air Quality AQ Index Pollutant
Not available.

Snow Depth

Station Depth Elevation

Earthquake Activity

City Distance Mag. Time & Date
Minimum magnitude displayed is 2.5.

Coastal Water Temperatures

Place Temperature

Stations

Nearby Weather Stations

Station Location Temp. Windchill Dew Point Humidity Wind Precip. Elev Updated Type
                   

Watches & Warnings

There are currently no watches in effect.